Time;durP1;ratioP1;P1;durP2;ratioP2;P2;SDS_P1;SDS_P2;PMS_P1;PMS_P2;Temp;Humidity;BMP_temperature;BMP_pressure;BME280_temperature;BME280_humidity;BME280_pressure;Samples;Min_cycle;Max_cycle;Signal;HPM_P1;HPM_P2
2021/04/02 00:00:40;;;;;;;13.70;6.30;;;8.50;97.50;;;;;;5042118;28;20220;-75
2021/04/02 00:03:25;;;;;;;15.52;7.82;;;8.40;98.00;;;;;;5052168;28;20255;-74
2021/04/02 00:05:53;;;;;;;13.55;6.35;;;8.30;98.10;;;;;;5033239;28;20315;-74
2021/04/02 00:08:20;;;;;;;10.88;6.60;;;8.30;98.10;;;;;;5045757;28;20668;-76
2021/04/02 00:10:56;;;;;;;15.18;6.93;;;8.30;98.10;;;;;;5050030;28;20307;-73
2021/04/02 00:13:46;;;;;;;10.75;6.28;;;8.30;98.10;;;;;;5051366;28;20273;-75
2021/04/02 00:16:15;;;;;;;10.70;6.78;;;8.30;97.80;;;;;;5027508;28;20299;-76
2021/04/02 00:18:42;;;;;;;9.55;6.15;;;8.10;98.00;;;;;;5033041;28;20664;-76
2021/04/02 00:21:11;;;;;;;14.27;7.20;;;8.00;98.10;;;;;;5034442;28;20679;-73
2021/04/02 00:23:38;;;;;;;12.23;6.53;;;8.00;98.20;;;;;;5024957;28;20189;-73
2021/04/02 00:26:19;;;;;;;12.90;8.25;;;7.90;98.50;;;;;;5033325;28;20200;-75
2021/04/02 00:28:47;;;;;;;11.85;7.45;;;7.80;98.90;;;;;;5029941;28;20240;-76
2021/04/02 00:31:14;;;;;;;11.48;7.00;;;7.80;98.80;;;;;;5034527;28;20181;-74
2021/04/02 00:33:41;;;;;;;11.10;7.32;;;7.80;98.60;;;;;;5048779;28;20275;-74
2021/04/02 00:36:07;;;;;;;12.73;7.30;;;7.70;99.30;;;;;;5051009;28;20274;-76
2021/04/02 00:38:34;;;;;;;8.48;6.50;;;7.70;99.50;;;;;;5032264;28;20654;-78
2021/04/02 00:41:10;;;;;;;11.73;7.43;;;7.80;98.70;;;;;;5051608;28;20184;-74
2021/04/02 00:43:45;;;;;;;11.10;7.32;;;7.60;99.30;;;;;;5047672;28;20187;-74
2021/04/02 00:46:13;;;;;;;12.07;6.88;;;7.60;99.90;;;;;;5027428;28;20204;-74
2021/04/02 00:48:41;;;;;;;14.52;7.80;;;7.50;99.90;;;;;;5050562;28;20212;-75
2021/04/02 00:51:26;;;;;;;15.38;8.95;;;7.60;99.90;;;;;;5051537;28;20212;-73
2021/04/02 00:53:53;;;;;;;13.20;8.23;;;7.80;99.90;;;;;;5042418;28;20219;-73
2021/04/02 00:56:21;;;;;;;9.02;6.57;;;7.90;99.90;;;;;;5033146;28;20243;-76
2021/04/02 00:58:50;;;;;;;15.95;7.63;;;8.00;99.90;;;;;;5048654;28;20216;-74
2021/04/02 01:01:17;;;;;;;11.90;6.85;;;7.90;99.90;;;;;;5051287;28;20185;-74
2021/04/02 01:03:47;;;;;;;8.90;6.47;;;7.80;99.90;;;;;;5050710;28;20727;-74
2021/04/02 01:06:20;;;;;;;14.60;8.10;;;7.90;99.90;;;;;;5048873;28;20338;-74
2021/04/02 01:08:48;;;;;;;17.42;7.82;;;8.00;99.90;;;;;;5031608;28;20212;-75
2021/04/02 01:11:20;;;;;;;13.23;7.25;;;8.20;99.90;;;;;;5033374;28;20189;-74
2021/04/02 01:13:50;;;;;;;14.43;7.75;;;8.30;99.90;;;;;;5036231;28;20219;-74
2021/04/02 01:16:23;;;;;;;13.02;7.55;;;8.40;99.90;;;;;;5044220;28;20262;-75
2021/04/02 01:18:52;;;;;;;15.85;9.65;;;8.40;99.90;;;;;;5044564;28;20223;-75
2021/04/02 01:21:34;;;;;;;8.45;7.38;;;8.40;99.90;;;;;;5016801;28;20262;-75
2021/04/02 01:24:17;;;;;;;14.45;9.57;;;8.50;99.90;;;;;;5014149;28;20221;-74
2021/04/02 01:26:55;;;;;;;12.50;8.73;;;8.50;99.90;;;;;;5048771;28;20211;-74
2021/04/02 01:29:56;;;;;;;13.93;8.55;;;8.50;99.90;;;;;;5049821;28;20686;-74
2021/04/02 01:32:33;;;;;;;18.33;9.18;;;8.50;99.90;;;;;;5042667;28;20263;-74
2021/04/02 01:35:10;;;;;;;14.60;9.23;;;8.50;99.90;;;;;;5053915;28;20215;-77
2021/04/02 01:37:56;;;;;;;14.38;8.98;;;8.50;99.90;;;;;;5036359;28;20196;-74
2021/04/02 01:40:29;;;;;;;10.40;8.40;;;8.50;99.90;;;;;;5054330;28;20235;-77
2021/04/02 01:43:02;;;;;;;18.70;9.60;;;8.60;99.90;;;;;;5052796;28;20193;-75
2021/04/02 01:45:29;;;;;;;19.35;9.60;;;8.60;99.90;;;;;;5047153;28;20232;-76
2021/04/02 01:48:00;;;;;;;16.65;10.20;;;8.60;99.90;;;;;;5046387;28;20207;-76
2021/04/02 01:50:32;;;;;;;13.80;10.20;;;8.60;99.90;;;;;;5052673;28;20302;-75
2021/04/02 01:53:00;;;;;;;16.15;10.35;;;8.60;99.90;;;;;;5040777;28;20188;-74
2021/04/02 01:55:28;;;;;;;12.23;9.75;;;8.60;99.90;;;;;;5035585;28;20224;-77
2021/04/02 01:57:57;;;;;;;12.80;10.57;;;8.70;99.90;;;;;;5036767;28;20196;-75
2021/04/02 02:00:36;;;;;;;14.23;10.55;;;8.60;99.90;;;;;;5041881;28;20279;-76
2021/04/02 02:03:04;;;;;;;14.80;10.15;;;8.50;99.90;;;;;;5039192;28;20196;-74
2021/04/02 02:05:34;;;;;;;21.33;12.80;;;8.60;99.90;;;;;;5053433;28;20247;-74
2021/04/02 02:08:10;;;;;;;18.17;11.93;;;8.50;99.90;;;;;;5053639;28;20224;-76
2021/04/02 02:10:44;;;;;;;15.85;11.07;;;8.60;99.90;;;;;;5042451;28;20274;-75
2021/04/02 02:13:12;;;;;;;14.35;10.75;;;8.60;99.90;;;;;;5053852;28;20196;-74
2021/04/02 02:15:49;;;;;;;15.30;10.73;;;8.60;99.90;;;;;;5051002;28;20216;-76
2021/04/02 02:18:19;;;;;;;17.83;12.02;;;8.60;99.90;;;;;;5026938;28;20190;-74
2021/04/02 02:20:52;;;;;;;17.00;11.13;;;8.50;99.90;;;;;;5052369;28;21570;-74
2021/04/02 02:23:22;;;;;;;20.80;10.80;;;8.50;99.90;;;;;;5052381;28;20200;-74
2021/04/02 02:25:50;;;;;;;16.60;11.57;;;8.50;99.90;;;;;;5042433;28;20224;-76
2021/04/02 02:28:18;;;;;;;15.02;10.77;;;8.50;99.90;;;;;;5053760;28;20716;-76
2021/04/02 02:30:46;;;;;;;15.05;10.50;;;8.50;99.90;;;;;;5032616;28;20287;-74
2021/04/02 02:33:40;;;;;;;13.00;10.45;;;8.50;99.90;;;;;;5049696;28;20192;-75
2021/04/02 02:36:29;;;;;;;19.60;9.85;;;8.50;99.90;;;;;;5035584;28;20219;-74
2021/04/02 02:38:56;;;;;;;15.10;10.35;;;8.50;99.90;;;;;;5050002;28;20226;-75
2021/04/02 02:41:30;;;;;;;16.77;10.85;;;8.50;99.90;;;;;;5053347;28;20180;-76
2021/04/02 02:44:00;;;;;;;16.33;11.15;;;8.50;99.90;;;;;;5046927;28;20290;-74
2021/04/02 02:46:28;;;;;;;21.58;10.73;;;8.50;99.90;;;;;;5048315;28;20217;-76
2021/04/02 02:49:00;;;;;;;19.52;10.20;;;8.60;99.90;;;;;;5048363;28;20213;-76
2021/04/02 02:51:32;;;;;;;14.00;10.93;;;8.60;99.90;;;;;;5049137;28;20207;-75
2021/04/02 02:54:07;;;;;;;18.70;11.95;;;8.60;99.90;;;;;;5021651;28;20212;-74
2021/04/02 02:56:37;;;;;;;15.50;10.63;;;8.50;99.90;;;;;;5034630;28;20215;-76
2021/04/02 02:59:09;;;;;;;20.73;12.52;;;8.50;99.90;;;;;;5029054;28;20773;-76
2021/04/02 03:01:39;;;;;;;16.27;11.38;;;8.50;99.90;;;;;;5032026;28;20196;-74
2021/04/02 03:04:07;;;;;;;15.80;10.85;;;8.50;99.90;;;;;;5034820;28;20231;-74
2021/04/02 03:06:39;;;;;;;15.93;10.75;;;8.50;99.90;;;;;;5031004;28;20231;-76
2021/04/02 03:09:10;;;;;;;15.60;11.45;;;8.40;99.90;;;;;;5019673;28;20209;-74
2021/04/02 03:11:40;;;;;;;22.80;12.45;;;8.40;99.90;;;;;;5036005;28;20204;-74
2021/04/02 03:14:08;;;;;;;18.40;12.05;;;8.30;99.90;;;;;;5012216;28;20217;-76
2021/04/02 03:16:42;;;;;;;17.70;12.25;;;8.30;99.90;;;;;;5028679;28;20836;-76
2021/04/02 03:19:17;;;;;;;21.85;12.00;;;8.30;99.90;;;;;;5052383;28;20220;-75
2021/04/02 03:21:49;;;;;;;15.63;11.43;;;8.30;99.90;;;;;;5046629;28;20255;-76
2021/04/02 03:24:24;;;;;;;15.57;11.68;;;8.30;99.90;;;;;;5029548;28;20278;-75
2021/04/02 03:26:58;;;;;;;16.48;11.50;;;8.30;99.90;;;;;;5051021;28;20204;-75
2021/04/02 03:29:27;;;;;;;14.57;11.48;;;8.30;99.90;;;;;;5044356;28;20228;-75
2021/04/02 03:32:07;;;;;;;20.13;13.18;;;8.20;99.90;;;;;;5052620;28;20181;-74
2021/04/02 03:34:35;;;;;;;16.15;13.45;;;8.20;99.90;;;;;;5034176;28;20204;-75
2021/04/02 03:37:07;;;;;;;21.45;15.68;;;8.10;99.90;;;;;;5033636;28;20655;-74
2021/04/02 03:39:41;;;;;;;19.77;14.73;;;8.10;99.90;;;;;;5030856;28;20307;-76
2021/04/02 03:42:13;;;;;;;19.08;13.95;;;8.10;99.90;;;;;;5015367;28;20200;-75
2021/04/02 03:44:47;;;;;;;17.58;13.93;;;8.10;99.90;;;;;;5042523;28;20228;-75
2021/04/02 03:47:19;;;;;;;18.63;13.13;;;8.20;99.90;;;;;;5034672;28;20227;-76
2021/04/02 03:49:51;;;;;;;17.10;13.95;;;8.20;99.90;;;;;;5033846;28;20211;-77
2021/04/02 03:52:32;;;;;;;16.40;14.40;;;8.20;99.90;;;;;;5046384;28;20280;-75
2021/04/02 03:55:00;;;;;;;20.77;15.77;;;8.10;99.90;;;;;;5050852;28;20234;-76
2021/04/02 03:57:28;;;;;;;20.52;14.82;;;8.20;99.90;;;;;;5051968;28;20673;-76
2021/04/02 03:59:58;;;;;;;20.25;15.82;;;8.00;99.90;;;;;;5045638;28;20625;-76
2021/04/02 04:02:29;;;;;;;23.42;17.58;;;8.10;99.90;;;;;;5030057;28;20192;-72
2021/04/02 04:05:02;;;;;;;19.23;14.75;;;8.00;99.90;;;;;;5017624;28;20227;-73
2021/04/02 04:07:31;;;;;;;23.15;16.05;;;8.00;99.90;;;;;;5029845;28;20217;-74
2021/04/02 04:09:59;;;;;;;24.35;16.10;;;7.90;99.90;;;;;;5051168;28;20209;-77
2021/04/02 04:12:28;;;;;;;26.88;17.40;;;7.90;99.90;;;;;;5051736;28;20192;-76
2021/04/02 04:15:04;;;;;;;25.50;15.20;;;7.90;99.90;;;;;;5017765;28;20220;-75
2021/04/02 04:17:39;;;;;;;20.63;16.40;;;7.80;99.90;;;;;;5034671;28;20188;-76
2021/04/02 04:20:10;;;;;;;20.88;16.25;;;7.80;99.90;;;;;;5033151;28;20219;-77
2021/04/02 04:22:48;;;;;;;20.70;16.73;;;7.80;99.90;;;;;;5050087;28;20558;-75
2021/04/02 04:25:20;;;;;;;17.40;14.50;;;7.80;99.90;;;;;;5038864;28;20303;-74
2021/04/02 04:27:47;;;;;;;18.42;14.93;;;7.80;99.90;;;;;;5033546;28;20255;-76
2021/04/02 04:30:16;;;;;;;20.73;16.63;;;7.70;99.90;;;;;;5050648;28;20295;-75
2021/04/02 04:32:43;;;;;;;23.00;16.58;;;7.80;99.90;;;;;;5051629;28;20264;-77
2021/04/02 04:35:17;;;;;;;19.40;15.88;;;7.60;99.90;;;;;;5033327;28;20732;-75
2021/04/02 04:37:45;;;;;;;20.50;16.55;;;7.60;99.90;;;;;;5045816;28;20193;-77
2021/04/02 04:40:15;;;;;;;21.20;16.13;;;7.60;99.90;;;;;;5050908;28;20216;-76
2021/04/02 04:42:43;;;;;;;24.92;17.45;;;7.60;99.90;;;;;;5033620;28;20242;-75
2021/04/02 04:45:11;;;;;;;22.58;16.50;;;7.50;99.90;;;;;;5036647;28;20247;-75
2021/04/02 04:47:38;;;;;;;24.27;16.67;;;7.40;99.90;;;;;;5033455;28;20308;-73
2021/04/02 04:50:07;;;;;;;23.05;16.52;;;7.50;99.90;;;;;;5038926;28;20695;-77
2021/04/02 04:52:43;;;;;;;22.50;16.98;;;7.50;99.90;;;;;;5036429;28;20177;-76
2021/04/02 04:55:11;;;;;;;25.25;16.40;;;7.50;99.90;;;;;;5032775;28;20223;-74
2021/04/02 04:57:39;;;;;;;21.90;16.83;;;7.50;99.90;;;;;;5049888;28;20231;-77
2021/04/02 05:00:12;;;;;;;20.70;15.77;;;7.50;99.90;;;;;;5049547;28;20250;-77
2021/04/02 05:02:43;;;;;;;24.13;18.58;;;7.60;99.90;;;;;;5044632;28;20524;-76
2021/04/02 05:05:20;;;;;;;20.17;16.25;;;7.50;99.90;;;;;;5033490;28;20220;-73
2021/04/02 05:07:49;;;;;;;22.98;17.65;;;7.50;99.90;;;;;;5029980;28;20215;-77
2021/04/02 05:10:22;;;;;;;22.92;19.33;;;7.60;99.90;;;;;;5054639;28;20270;-77
2021/04/02 05:12:51;;;;;;;23.17;18.25;;;7.60;99.90;;;;;;5055703;28;20264;-75
2021/04/02 05:15:19;;;;;;;28.40;18.73;;;7.60;99.90;;;;;;5035231;28;20243;-73
2021/04/02 05:17:50;;;;;;;23.40;17.75;;;7.60;99.90;;;;;;5054901;28;20593;-74
2021/04/02 05:20:18;;;;;;;19.08;17.02;;;7.50;99.90;;;;;;5036634;28;20224;-76
2021/04/02 05:22:45;;;;;;;21.95;16.75;;;7.60;99.90;;;;;;5036487;28;20303;-74
2021/04/02 05:25:13;;;;;;;25.30;19.52;;;7.60;99.90;;;;;;5054362;28;20690;-73
2021/04/02 05:27:39;;;;;;;27.30;18.63;;;7.60;99.90;;;;;;5053077;28;20254;-74
2021/04/02 05:30:06;;;;;;;29.17;19.27;;;7.70;99.90;;;;;;5053470;28;20212;-76
2021/04/02 05:32:33;;;;;;;23.45;18.25;;;7.60;99.90;;;;;;5054873;28;20278;-77
2021/04/02 05:35:00;;;;;;;24.48;18.08;;;7.60;99.90;;;;;;5036446;28;20221;-73
2021/04/02 05:37:27;;;;;;;25.30;18.77;;;7.60;99.90;;;;;;5053401;28;20192;-76
2021/04/02 05:39:53;;;;;;;24.35;19.40;;;7.60;99.90;;;;;;5027613;28;20220;-76
2021/04/02 05:42:27;;;;;;;20.58;16.75;;;7.60;99.90;;;;;;5050329;28;20227;-76
2021/04/02 05:45:00;;;;;;;25.80;17.85;;;7.60;99.90;;;;;;5052777;28;20224;-75
2021/04/02 05:47:28;;;;;;;23.75;16.45;;;7.60;99.90;;;;;;5049103;28;20256;-75
2021/04/02 05:49:58;;;;;;;22.30;16.30;;;7.60;99.90;;;;;;5053460;28;20414;-76
2021/04/02 05:52:26;;;;;;;20.30;13.63;;;7.40;99.90;;;;;;5054692;28;20219;-76
2021/04/02 05:54:54;;;;;;;21.35;14.48;;;7.40;99.90;;;;;;5052360;28;20250;-75
2021/04/02 05:57:21;;;;;;;17.50;14.35;;;7.40;99.90;;;;;;5054344;28;20188;-76
2021/04/02 05:59:48;;;;;;;19.70;15.35;;;7.30;99.90;;;;;;5052160;28;20307;-74
2021/04/02 06:02:17;;;;;;;16.25;13.25;;;7.20;99.90;;;;;;5036852;28;20185;-76
2021/04/02 06:04:45;;;;;;;23.10;13.93;;;7.20;99.90;;;;;;5053284;28;20239;-75
2021/04/02 06:07:14;;;;;;;19.65;14.43;;;7.10;99.90;;;;;;5036169;28;20296;-72
2021/04/02 06:09:41;;;;;;;25.38;16.15;;;7.10;99.90;;;;;;5045183;28;20258;-77
2021/04/02 06:12:09;;;;;;;22.50;16.55;;;7.10;99.90;;;;;;5052737;28;20196;-74
2021/04/02 06:14:36;;;;;;;24.98;18.17;;;7.10;99.90;;;;;;5034541;28;20586;-75
2021/04/02 06:17:07;;;;;;;23.70;18.40;;;7.20;99.90;;;;;;5036798;28;20565;-73
2021/04/02 06:19:33;;;;;;;28.48;20.08;;;7.20;99.90;;;;;;5053600;28;20228;-74
2021/04/02 06:22:00;;;;;;;27.02;19.80;;;7.20;99.90;;;;;;5036012;28;20181;-76
2021/04/02 06:24:46;;;;;;;28.35;20.75;;;7.30;99.90;;;;;;5023401;28;20690;-75
2021/04/02 06:27:14;;;;;;;28.23;22.10;;;7.30;99.90;;;;;;5037978;28;20204;-76
2021/04/02 06:30:01;;;;;;;29.23;21.70;;;7.30;99.90;;;;;;5027197;28;20209;-77
2021/04/02 06:32:37;;;;;;;31.45;23.50;;;7.40;99.90;;;;;;5053904;28;20203;-76
2021/04/02 06:35:08;;;;;;;33.10;24.58;;;7.40;99.90;;;;;;5034905;28;20682;-76
2021/04/02 06:37:38;;;;;;;29.80;23.98;;;7.40;99.90;;;;;;5043814;28;20615;-76
2021/04/02 06:40:24;;;;;;;28.52;25.50;;;7.40;99.90;;;;;;5035056;28;20303;-75
2021/04/02 06:42:52;;;;;;;38.72;24.25;;;7.40;99.90;;;;;;5053714;28;20200;-76
2021/04/02 06:45:20;;;;;;;31.38;24.33;;;7.40;99.90;;;;;;5050883;28;20744;-75
2021/04/02 06:47:47;;;;;;;30.02;24.65;;;7.50;99.90;;;;;;5034960;28;20247;-76
2021/04/02 06:50:24;;;;;;;29.00;23.75;;;7.50;99.90;;;;;;5051569;28;20213;-75
2021/04/02 06:52:57;;;;;;;27.95;22.13;;;7.50;99.90;;;;;;5042043;28;20396;-76
2021/04/02 06:55:26;;;;;;;30.58;22.55;;;7.60;99.90;;;;;;5052075;28;20307;-76
2021/04/02 06:57:55;;;;;;;28.98;23.33;;;7.60;99.90;;;;;;5034578;28;20189;-73
2021/04/02 07:00:27;;;;;;;40.83;24.23;;;7.60;99.90;;;;;;5049586;28;20328;-74
2021/04/02 07:03:02;;;;;;;34.33;26.35;;;7.70;99.90;;;;;;5052728;28;20196;-75
2021/04/02 07:05:31;;;;;;;37.47;26.35;;;7.70;99.90;;;;;;5050812;28;20282;-74
2021/04/02 07:08:06;;;;;;;39.88;25.17;;;7.80;99.90;;;;;;5033755;28;20200;-73
2021/04/02 07:10:40;;;;;;;38.38;25.27;;;7.90;99.90;;;;;;5017592;28;20212;-74
2021/04/02 07:13:09;;;;;;;46.38;29.05;;;7.90;99.90;;;;;;5052323;28;20193;-77
2021/04/02 07:15:37;;;;;;;43.05;27.20;;;7.90;99.90;;;;;;5050096;28;20239;-74
2021/04/02 07:18:08;;;;;;;37.13;24.35;;;8.00;99.90;;;;;;5038819;28;20189;-76
2021/04/02 07:20:35;;;;;;;39.28;26.70;;;8.00;99.90;;;;;;5034298;28;20226;-75
2021/04/02 07:23:01;;;;;;;46.17;27.33;;;8.00;99.90;;;;;;5049627;28;20189;-75
2021/04/02 07:25:28;;;;;;;45.67;27.60;;;8.00;99.90;;;;;;5050353;28;20317;-74
2021/04/02 07:27:57;;;;;;;46.50;26.42;;;8.10;99.90;;;;;;5037555;28;20232;-74
2021/04/02 07:30:31;;;;;;;40.97;25.50;;;8.10;99.90;;;;;;5048297;28;20219;-76
2021/04/02 07:33:06;;;;;;;51.42;28.15;;;8.10;99.90;;;;;;5010470;28;20243;-74
2021/04/02 07:35:35;;;;;;;48.55;30.13;;;8.20;99.90;;;;;;5034171;28;20230;-74
2021/04/02 07:38:02;;;;;;;55.60;31.15;;;8.30;99.90;;;;;;5037192;28;20233;-75
2021/04/02 07:40:35;;;;;;;55.80;30.88;;;8.30;99.90;;;;;;5018091;28;20232;-74
2021/04/02 07:43:06;;;;;;;56.17;31.38;;;8.30;99.90;;;;;;5052585;28;20299;-75
2021/04/02 07:45:35;;;;;;;49.10;29.75;;;8.40;99.90;;;;;;5047032;28;20597;-74
2021/04/02 07:48:16;;;;;;;43.65;28.75;;;8.30;99.90;;;;;;5034902;28;20662;-74
2021/04/02 07:50:57;;;;;;;48.08;30.88;;;8.40;99.90;;;;;;5034356;28;20314;-74
2021/04/02 07:53:28;;;;;;;47.40;28.58;;;8.40;99.90;;;;;;5017943;28;20190;-75
2021/04/02 07:56:00;;;;;;;42.88;25.13;;;8.50;99.90;;;;;;5030706;28;20213;-76
2021/04/02 07:58:30;;;;;;;41.15;26.25;;;8.50;99.90;;;;;;5033802;28;20202;-76
2021/04/02 08:01:00;;;;;;;46.38;28.10;;;8.50;99.90;;;;;;5032343;28;20290;-76
2021/04/02 08:03:31;;;;;;;38.78;26.52;;;8.50;99.90;;;;;;5030619;28;20193;-75
2021/04/02 08:05:59;;;;;;;49.83;30.48;;;8.50;99.90;;;;;;5051082;28;20303;-74
2021/04/02 08:08:27;;;;;;;43.75;29.90;;;8.50;99.90;;;;;;5008720;28;20258;-74
2021/04/02 08:11:28;;;;;;;51.22;31.77;;;8.60;99.90;;;;;;5032422;28;20232;-75
2021/04/02 08:14:05;;;;;;;44.10;30.25;;;8.60;99.90;;;;;;5048107;28;20304;-75
2021/04/02 08:16:32;;;;;;;44.75;30.13;;;8.70;99.90;;;;;;5038612;28;20200;-74
2021/04/02 08:19:13;;;;;;;51.42;34.45;;;8.80;99.90;;;;;;5038169;28;20216;-77
2021/04/02 08:21:43;;;;;;;48.35;32.60;;;8.90;99.90;;;;;;5028782;28;20218;-75
2021/04/02 08:24:12;;;;;;;56.78;35.33;;;9.00;99.90;;;;;;5033473;28;20227;-76
2021/04/02 08:26:40;;;;;;;47.75;35.17;;;9.00;99.90;;;;;;5033576;28;20209;-74
2021/04/02 08:29:08;;;;;;;62.55;37.30;;;9.10;99.90;;;;;;5015449;28;20753;-75
2021/04/02 08:31:38;;;;;;;59.50;36.83;;;9.20;99.90;;;;;;5033817;28;20250;-74
2021/04/02 08:34:04;;;;;;;55.13;36.72;;;9.20;99.90;;;;;;5015022;28;20244;-74
2021/04/02 08:36:31;;;;;;;56.22;36.00;;;9.30;99.90;;;;;;5047472;28;20204;-74
2021/04/02 08:38:58;;;;;;;60.00;37.28;;;9.40;99.90;;;;;;5022220;28;20695;-74
2021/04/02 08:41:27;;;;;;;56.53;37.25;;;9.50;99.90;;;;;;5046748;28;20227;-76
2021/04/02 08:43:53;;;;;;;61.20;41.78;;;9.80;99.90;;;;;;5018860;28;20709;-77
2021/04/02 08:47:00;;;;;;;60.60;38.95;;;10.10;99.90;;;;;;5045849;28;20242;-74
2021/04/02 08:49:26;;;;;;;53.45;38.72;;;10.20;99.90;;;;;;4950567;28;20219;-77
2021/04/02 08:51:53;;;;;;;60.08;40.72;;;10.10;99.90;;;;;;4950631;28;20215;-75
2021/04/02 08:54:22;;;;;;;67.88;40.90;;;10.10;99.90;;;;;;4982868;28;20213;-76
2021/04/02 08:56:49;;;;;;;62.80;43.22;;;10.00;99.90;;;;;;5036498;28;20267;-75
2021/04/02 08:59:17;;;;;;;64.82;41.13;;;10.00;99.90;;;;;;5011672;28;20236;-76
2021/04/02 09:01:45;;;;;;;59.17;39.47;;;9.90;99.90;;;;;;5050138;28;20284;-75
2021/04/02 09:04:13;;;;;;;54.28;39.25;;;9.80;99.90;;;;;;5050725;28;20221;-76
2021/04/02 09:06:40;;;;;;;63.80;39.88;;;9.60;99.90;;;;;;5050641;28;20204;-75
2021/04/02 09:09:19;;;;;;;62.17;40.60;;;9.50;99.90;;;;;;5043459;28;20235;-76
2021/04/02 09:11:50;;;;;;;62.85;40.88;;;9.50;99.90;;;;;;5050811;28;20187;-74
2021/04/02 09:14:17;;;;;;;61.80;42.70;;;9.40;99.90;;;;;;5025833;28;20590;-74
2021/04/02 09:16:45;;;;;;;59.17;41.08;;;9.30;99.90;;;;;;5051003;28;20566;-78
2021/04/02 09:19:13;;;;;;;65.30;42.30;;;9.20;99.90;;;;;;5032579;28;20617;-75
2021/04/02 09:21:54;;;;;;;62.65;39.97;;;9.20;99.90;;;;;;5046550;28;20188;-76
2021/04/02 09:24:22;;;;;;;63.05;41.10;;;9.20;99.90;;;;;;5045256;28;20223;-74
2021/04/02 09:26:49;;;;;;;57.70;37.97;;;9.20;99.90;;;;;;5025434;28;20205;-74
2021/04/02 09:29:21;;;;;;;55.85;35.25;;;9.20;99.90;;;;;;5031526;28;20220;-77
2021/04/02 09:31:50;;;;;;;50.13;34.33;;;9.20;99.90;;;;;;5050499;28;20643;-75
2021/04/02 09:34:19;;;;;;;53.70;39.17;;;9.10;99.90;;;;;;5033993;28;20216;-75
2021/04/02 09:36:47;;;;;;;47.45;35.28;;;9.10;99.90;;;;;;5028473;28;20304;-75
2021/04/02 09:39:17;;;;;;;49.65;34.40;;;9.20;99.90;;;;;;5050234;28;20208;-74
2021/04/02 09:41:52;;;;;;;49.08;32.70;;;9.30;99.90;;;;;;5050998;28;20231;-76
2021/04/02 09:44:29;;;;;;;43.67;29.63;;;9.40;99.90;;;;;;5008573;28;20220;-77
2021/04/02 09:47:12;;;;;;;47.78;31.42;;;9.50;99.90;;;;;;5028960;28;20216;-74
2021/04/02 09:49:43;;;;;;;46.70;30.80;;;9.60;99.90;;;;;;5030130;28;20211;-75
2021/04/02 09:52:10;;;;;;;36.35;27.40;;;9.80;99.90;;;;;;5034892;28;20192;-74
2021/04/02 09:54:38;;;;;;;31.42;24.23;;;10.00;99.90;;;;;;5029646;28;20217;-78
2021/04/02 09:57:08;;;;;;;35.35;24.40;;;10.10;99.90;;;;;;5000673;28;20284;-74
2021/04/02 09:59:36;;;;;;;33.40;23.65;;;10.30;99.90;;;;;;5029465;28;20308;-76
2021/04/02 10:02:03;;;;;;;29.33;21.37;;;10.40;99.90;;;;;;5017210;28;20259;-75
2021/04/02 10:04:29;;;;;;;28.83;22.38;;;10.40;99.90;;;;;;5033006;28;20498;-76
2021/04/02 10:07:01;;;;;;;34.50;23.60;;;10.40;99.90;;;;;;5033310;28;20248;-74
2021/04/02 10:09:31;;;;;;;40.80;27.10;;;10.40;99.60;;;;;;5016322;28;20213;-74
2021/04/02 10:12:07;;;;;;;34.53;26.20;;;10.30;99.90;;;;;;5031429;28;20247;-75
2021/04/02 10:14:34;;;;;;;42.13;27.30;;;10.20;99.90;;;;;;5034926;28;20813;-75
2021/04/02 10:17:08;;;;;;;39.58;27.27;;;10.30;99.90;;;;;;5033266;28;20223;-73
2021/04/02 10:19:40;;;;;;;34.42;23.73;;;10.30;99.90;;;;;;5019715;28;20319;-74
2021/04/02 10:22:06;;;;;;;32.78;25.08;;;10.20;98.40;;;;;;5035402;28;20299;-74
2021/04/02 10:24:33;;;;;;;38.97;26.63;;;10.10;98.90;;;;;;5049770;28;20225;-77
2021/04/02 10:27:00;;;;;;;29.48;24.33;;;10.00;99.40;;;;;;5035554;28;20678;-74
2021/04/02 10:29:27;;;;;;;37.97;25.10;;;9.90;99.90;;;;;;5040292;28;20212;-75
2021/04/02 10:31:54;;;;;;;33.17;25.20;;;9.90;99.90;;;;;;5025020;28;20235;-76
2021/04/02 10:34:21;;;;;;;40.85;29.02;;;9.90;99.90;;;;;;5048270;28;20224;-77
2021/04/02 10:36:48;;;;;;;39.72;27.23;;;9.90;99.90;;;;;;5050105;28;20690;-74
2021/04/02 10:39:14;;;;;;;34.95;25.83;;;10.00;99.10;;;;;;5048585;28;20217;-74
2021/04/02 10:41:41;;;;;;;37.75;26.15;;;9.90;99.40;;;;;;5036343;28;20180;-74
2021/04/02 10:44:07;;;;;;;43.13;30.30;;;9.90;99.30;;;;;;5030525;28;20782;-74
2021/04/02 10:46:35;;;;;;;50.00;33.13;;;9.90;99.90;;;;;;5052404;28;20250;-74
2021/04/02 10:49:02;;;;;;;40.83;27.13;;;9.80;99.90;;;;;;5052595;28;20610;-74
2021/04/02 10:51:30;;;;;;;39.80;29.33;;;9.80;99.90;;;;;;5047939;28;20200;-76
2021/04/02 10:54:03;;;;;;;44.00;31.08;;;9.80;99.90;;;;;;5040387;28;20278;-75
2021/04/02 10:56:32;;;;;;;44.60;31.98;;;9.70;99.90;;;;;;5034592;28;20712;-74
2021/04/02 10:59:00;;;;;;;34.75;25.33;;;9.70;99.90;;;;;;5035538;28;20315;-73
2021/04/02 11:01:26;;;;;;;32.47;25.67;;;9.70;99.90;;;;;;5035666;28;20663;-75
2021/04/02 11:03:53;;;;;;;34.17;26.50;;;9.80;99.90;;;;;;5052037;28;20223;-74
2021/04/02 11:06:22;;;;;;;42.40;30.35;;;9.90;99.90;;;;;;5034602;28;20231;-74
2021/04/02 11:08:51;;;;;;;46.00;31.20;;;10.00;99.90;;;;;;5045867;28;20229;-74
2021/04/02 11:11:17;;;;;;;42.92;31.02;;;10.00;99.10;;;;;;5046991;28;20263;-76
2021/04/02 11:13:44;;;;;;;42.03;28.70;;;10.00;99.50;;;;;;5035518;28;20207;-75
2021/04/02 11:16:13;;;;;;;42.50;29.23;;;9.90;99.90;;;;;;5048719;28;20209;-74
2021/04/02 11:18:41;;;;;;;44.25;30.90;;;9.80;99.90;;;;;;5033847;28;20650;-75
2021/04/02 11:21:08;;;;;;;42.13;30.80;;;9.80;99.90;;;;;;5051490;28;20183;-75
2021/04/02 11:23:34;;;;;;;41.25;31.90;;;9.80;99.90;;;;;;5049762;28;20642;-76
2021/04/02 11:26:01;;;;;;;41.60;30.13;;;9.80;99.90;;;;;;5052133;28;20224;-75
2021/04/02 11:28:27;;;;;;;39.42;28.48;;;9.80;99.90;;;;;;5050835;28;20204;-74
2021/04/02 11:30:54;;;;;;;39.65;28.60;;;9.80;99.90;;;;;;5042171;28;20232;-75
2021/04/02 11:33:20;;;;;;;39.40;26.80;;;9.80;99.90;;;;;;5024500;28;20287;-75
2021/04/02 11:35:46;;;;;;;41.42;27.35;;;9.80;99.90;;;;;;5033468;28;20227;-73
2021/04/02 11:38:13;;;;;;;33.30;23.88;;;9.70;99.70;;;;;;5051280;28;20197;-73
2021/04/02 11:40:41;;;;;;;33.67;23.33;;;9.50;99.90;;;;;;5034320;28;20222;-76
2021/04/02 11:43:08;;;;;;;35.63;24.80;;;9.40;99.90;;;;;;5048046;28;20700;-76
2021/04/02 11:45:37;;;;;;;39.53;26.48;;;9.30;99.90;;;;;;5045959;28;20220;-75
2021/04/02 11:48:04;;;;;;;32.38;25.20;;;9.30;99.90;;;;;;5042640;28;20208;-74
2021/04/02 11:50:38;;;;;;;35.72;24.73;;;9.30;99.90;;;;;;5032213;28;20335;-77
2021/04/02 11:53:04;;;;;;;35.60;23.95;;;9.40;99.90;;;;;;5038484;28;20631;-75
2021/04/02 11:55:31;;;;;;;31.33;24.30;;;9.40;99.90;;;;;;5046231;28;20559;-76
2021/04/02 11:57:58;;;;;;;31.05;23.58;;;9.40;99.90;;;;;;5021865;28;20276;-75
2021/04/02 12:00:28;;;;;;;40.88;26.30;;;9.40;99.80;;;;;;5032699;28;20712;-76
2021/04/02 12:02:57;;;;;;;41.03;26.17;;;9.20;99.90;;;;;;5032259;28;20188;-75
2021/04/02 12:05:24;;;;;;;40.72;27.50;;;9.10;99.90;;;;;;5016216;28;20316;-75
2021/04/02 12:07:54;;;;;;;39.35;25.42;;;9.10;99.90;;;;;;5049717;28;20208;-75
2021/04/02 12:10:21;;;;;;;31.20;24.05;;;9.00;99.90;;;;;;5046393;28;20220;-75
2021/04/02 12:12:48;;;;;;;35.50;24.45;;;8.90;99.90;;;;;;5049562;28;20655;-75
2021/04/02 12:15:14;;;;;;;39.83;23.55;;;8.90;99.90;;;;;;5031081;28;20220;-76
2021/04/02 12:17:42;;;;;;;36.58;23.23;;;8.80;99.90;;;;;;5033356;28;20241;-73
2021/04/02 12:20:14;;;;;;;34.45;21.95;;;8.90;99.90;;;;;;5045753;28;20217;-73
2021/04/02 12:22:43;;;;;;;27.02;18.75;;;8.80;99.90;;;;;;5047250;28;20231;-75
2021/04/02 12:25:14;;;;;;;21.95;14.60;;;8.80;99.90;;;;;;5049437;28;20311;-75
2021/04/02 12:27:41;;;;;;;15.60;11.32;;;8.70;99.90;;;;;;5051100;28;20204;-74
2021/04/02 12:30:14;;;;;;;12.88;9.10;;;8.60;99.90;;;;;;5025710;28;20208;-76
2021/04/02 12:32:45;;;;;;;11.30;9.52;;;8.60;99.90;;;;;;5026045;28;20203;-75
2021/04/02 12:35:16;;;;;;;13.05;9.95;;;8.50;99.90;;;;;;5050638;28;20221;-74
2021/04/02 12:37:43;;;;;;;13.02;8.88;;;8.50;99.90;;;;;;5051393;28;20210;-74
2021/04/02 12:40:21;;;;;;;15.15;9.10;;;8.50;99.90;;;;;;5025606;28;20240;-73
2021/04/02 12:42:54;;;;;;;11.85;9.00;;;8.50;99.90;;;;;;5011035;28;20189;-75
2021/04/02 12:45:21;;;;;;;10.93;8.80;;;8.50;99.90;;;;;;5021267;28;20216;-76
2021/04/02 12:47:48;;;;;;;6.30;5.68;;;8.50;99.90;;;;;;5050562;28;20193;-75
2021/04/02 12:50:23;;;;;;;11.93;6.45;;;8.50;99.90;;;;;;5033395;28;20219;-75
2021/04/02 12:52:50;;;;;;;6.95;5.80;;;8.50;99.90;;;;;;5028407;28;20181;-76
2021/04/02 12:55:33;;;;;;;16.25;7.45;;;8.50;99.90;;;;;;5029517;28;20224;-77